sensor_id;sensor_type;location;lat;lon;timestamp;pressure;altitude;pressure_sealevel;temperature;humidity
56582;BME280;42463;52.214;21.238;2023-05-18T00:00:32;101105.60;;;10.37;67.57
56582;BME280;42463;52.214;21.238;2023-05-18T00:02:54;101107.96;;;10.35;67.57
56582;BME280;42463;52.214;21.238;2023-05-18T00:05:01;101102.91;;;10.35;67.33
56582;BME280;42463;52.214;21.238;2023-05-18T00:07:07;101105.79;;;10.35;67.43
56582;BME280;42463;52.214;21.238;2023-05-18T00:09:13;101104.96;;;10.35;67.68
56582;BME280;42463;52.214;21.238;2023-05-18T00:11:19;101109.73;;;10.34;67.80
56582;BME280;42463;52.214;21.238;2023-05-18T00:13:25;101110.06;;;10.35;67.72
56582;BME280;42463;52.214;21.238;2023-05-18T00:15:30;101112.39;;;10.35;67.70
56582;BME280;42463;52.214;21.238;2023-05-18T00:17:36;101107.96;;;10.33;67.72
56582;BME280;42463;52.214;21.238;2023-05-18T00:19:41;101106.20;;;10.32;67.61
56582;BME280;42463;52.214;21.238;2023-05-18T00:21:50;101105.88;;;10.30;67.53
56582;BME280;42463;52.214;21.238;2023-05-18T00:23:59;101105.83;;;10.28;67.40
56582;BME280;42463;52.214;21.238;2023-05-18T00:26:05;101104.68;;;10.28;67.55
56582;BME280;42463;52.214;21.238;2023-05-18T00:28:10;101106.77;;;10.27;67.58
56582;BME280;42463;52.214;21.238;2023-05-18T00:30:16;101102.21;;;10.26;67.39
56582;BME280;42463;52.214;21.238;2023-05-18T00:32:21;101104.30;;;10.25;67.51
56582;BME280;42463;52.214;21.238;2023-05-18T00:34:27;101102.27;;;10.24;67.53
56582;BME280;42463;52.214;21.238;2023-05-18T00:36:32;101104.35;;;10.22;67.62
56582;BME280;42463;52.214;21.238;2023-05-18T00:38:39;101106.17;;;10.21;67.60
56582;BME280;42463;52.214;21.238;2023-05-18T00:40:46;101102.16;;;10.20;67.49
56582;BME280;42463;52.214;21.238;2023-05-18T00:42:52;101106.77;;;10.19;67.45
56582;BME280;42463;52.214;21.238;2023-05-18T00:44:57;101104.17;;;10.18;67.59
56582;BME280;42463;52.214;21.238;2023-05-18T00:47:03;101109.15;;;10.18;67.46
56582;BME280;42463;52.214;21.238;2023-05-18T00:49:09;101111.29;;;10.17;67.72
56582;BME280;42463;52.214;21.238;2023-05-18T00:51:15;101116.16;;;10.16;67.86
56582;BME280;42463;52.214;21.238;2023-05-18T00:53:21;101118.17;;;10.15;67.72
56582;BME280;42463;52.214;21.238;2023-05-18T00:55:26;101124.14;;;10.14;67.88
56582;BME280;42463;52.214;21.238;2023-05-18T00:57:32;101128.58;;;10.14;67.91
56582;BME280;42463;52.214;21.238;2023-05-18T00:59:40;101129.16;;;10.13;68.07
56582;BME280;42463;52.214;21.238;2023-05-18T01:01:46;101132.39;;;10.13;68.21
56582;BME280;42463;52.214;21.238;2023-05-18T01:03:52;101133.98;;;10.11;68.37
56582;BME280;42463;52.214;21.238;2023-05-18T01:05:59;101136.23;;;10.10;68.39
56582;BME280;42463;52.214;21.238;2023-05-18T01:08:08;101140.00;;;10.09;68.37
56582;BME280;42463;52.214;21.238;2023-05-18T01:10:16;101144.60;;;10.08;68.47
56582;BME280;42463;52.214;21.238;2023-05-18T01:12:28;101144.92;;;10.06;68.73
56582;BME280;42463;52.214;21.238;2023-05-18T01:14:36;101146.19;;;10.05;68.62
56582;BME280;42463;52.214;21.238;2023-05-18T01:16:53;101144.96;;;10.04;68.68
56582;BME280;42463;52.214;21.238;2023-05-18T01:19:05;101145.20;;;10.02;68.87
56582;BME280;42463;52.214;21.238;2023-05-18T01:21:31;101144.67;;;10.01;69.19
56582;BME280;42463;52.214;21.238;2023-05-18T01:24:06;101143.48;;;10.01;69.21
56582;BME280;42463;52.214;21.238;2023-05-18T01:26:16;101143.80;;;10.01;69.47
56582;BME280;42463;52.214;21.238;2023-05-18T01:28:31;101136.96;;;10.01;69.61
56582;BME280;42463;52.214;21.238;2023-05-18T01:30:40;101137.94;;;10.00;69.55
56582;BME280;42463;52.214;21.238;2023-05-18T01:32:47;101145.36;;;10.00;69.47
56582;BME280;42463;52.214;21.238;2023-05-18T01:34:52;101149.60;;;9.98;69.16
56582;BME280;42463;52.214;21.238;2023-05-18T01:36:59;101155.09;;;9.97;69.18
56582;BME280;42463;52.214;21.238;2023-05-18T01:39:05;101160.69;;;9.95;69.16
56582;BME280;42463;52.214;21.238;2023-05-18T01:41:15;101160.33;;;9.94;68.92
56582;BME280;42463;52.214;21.238;2023-05-18T01:43:29;101158.80;;;9.93;68.74
56582;BME280;42463;52.214;21.238;2023-05-18T01:45:38;101161.61;;;9.93;68.74
56582;BME280;42463;52.214;21.238;2023-05-18T01:47:45;101158.16;;;9.91;68.68
56582;BME280;42463;52.214;21.238;2023-05-18T01:49:58;101163.67;;;9.91;68.56
56582;BME280;42463;52.214;21.238;2023-05-18T01:52:20;101161.05;;;9.90;68.65
56582;BME280;42463;52.214;21.238;2023-05-18T01:54:27;101162.98;;;9.90;69.04
56582;BME280;42463;52.214;21.238;2023-05-18T01:56:35;101163.58;;;9.89;69.05
56582;BME280;42463;52.214;21.238;2023-05-18T01:58:41;101163.55;;;9.88;69.03
56582;BME280;42463;52.214;21.238;2023-05-18T02:00:48;101162.77;;;9.87;69.19
56582;BME280;42463;52.214;21.238;2023-05-18T02:02:54;101167.24;;;9.87;69.16
56582;BME280;42463;52.214;21.238;2023-05-18T02:04:59;101166.96;;;9.86;69.32
56582;BME280;42463;52.214;21.238;2023-05-18T02:07:06;101167.36;;;9.84;69.28
56582;BME280;42463;52.214;21.238;2023-05-18T02:09:14;101171.36;;;9.84;69.14
56582;BME280;42463;52.214;21.238;2023-05-18T02:11:19;101170.58;;;9.84;69.08
56582;BME280;42463;52.214;21.238;2023-05-18T02:13:24;101173.10;;;9.83;69.01
56582;BME280;42463;52.214;21.238;2023-05-18T02:15:31;101171.28;;;9.81;68.91
56582;BME280;42463;52.214;21.238;2023-05-18T02:17:36;101171.49;;;9.81;68.70
56582;BME280;42463;52.214;21.238;2023-05-18T02:19:42;101170.62;;;9.81;68.72
56582;BME280;42463;52.214;21.238;2023-05-18T02:21:47;101169.63;;;9.81;68.70
56582;BME280;42463;52.214;21.238;2023-05-18T02:23:53;101173.30;;;9.80;68.61
56582;BME280;42463;52.214;21.238;2023-05-18T02:25:58;101176.88;;;9.80;68.65
56582;BME280;42463;52.214;21.238;2023-05-18T02:28:04;101179.38;;;9.80;68.60
56582;BME280;42463;52.214;21.238;2023-05-18T02:30:11;101180.55;;;9.79;68.47
56582;BME280;42463;52.214;21.238;2023-05-18T02:32:17;101184.42;;;9.78;68.42
56582;BME280;42463;52.214;21.238;2023-05-18T02:34:23;101184.30;;;9.78;68.37
56582;BME280;42463;52.214;21.238;2023-05-18T02:36:28;101188.17;;;9.77;68.32
56582;BME280;42463;52.214;21.238;2023-05-18T02:38:42;101183.86;;;9.76;68.30
56582;BME280;42463;52.214;21.238;2023-05-18T02:40:48;101186.98;;;9.74;68.27
56582;BME280;42463;52.214;21.238;2023-05-18T02:42:54;101182.59;;;9.73;68.37
56582;BME280;42463;52.214;21.238;2023-05-18T02:45:01;101183.07;;;9.71;68.47
56582;BME280;42463;52.214;21.238;2023-05-18T02:47:07;101186.51;;;9.69;68.63
56582;BME280;42463;52.214;21.238;2023-05-18T02:49:14;101186.48;;;9.68;68.39
56582;BME280;42463;52.214;21.238;2023-05-18T02:51:19;101187.20;;;9.67;68.60
56582;BME280;42463;52.214;21.238;2023-05-18T02:53:26;101188.64;;;9.66;68.52
56582;BME280;42463;52.214;21.238;2023-05-18T02:55:36;101186.02;;;9.65;68.65
56582;BME280;42463;52.214;21.238;2023-05-18T02:57:51;101183.33;;;9.64;68.76
56582;BME280;42463;52.214;21.238;2023-05-18T03:00:02;101191.76;;;9.63;68.79
56582;BME280;42463;52.214;21.238;2023-05-18T03:02:13;101194.44;;;9.62;69.10
56582;BME280;42463;52.214;21.238;2023-05-18T03:04:19;101199.88;;;9.61;69.07
56582;BME280;42463;52.214;21.238;2023-05-18T03:06:29;101198.18;;;9.60;69.16
56582;BME280;42463;52.214;21.238;2023-05-18T03:08:34;101200.15;;;9.57;68.87
56582;BME280;42463;52.214;21.238;2023-05-18T03:10:41;101204.55;;;9.54;68.77
56582;BME280;42463;52.214;21.238;2023-05-18T03:12:47;101205.87;;;9.52;68.79
56582;BME280;42463;52.214;21.238;2023-05-18T03:14:52;101203.45;;;9.51;68.85
56582;BME280;42463;52.214;21.238;2023-05-18T03:16:58;101208.26;;;9.51;68.84
56582;BME280;42463;52.214;21.238;2023-05-18T03:19:03;101211.77;;;9.50;68.84
56582;BME280;42463;52.214;21.238;2023-05-18T03:21:12;101207.10;;;9.50;68.82
56582;BME280;42463;52.214;21.238;2023-05-18T03:23:17;101209.44;;;9.50;68.99
56582;BME280;42463;52.214;21.238;2023-05-18T03:25:23;101208.44;;;9.49;68.93
56582;BME280;42463;52.214;21.238;2023-05-18T03:27:29;101207.36;;;9.49;69.01
56582;BME280;42463;52.214;21.238;2023-05-18T03:29:34;101211.15;;;9.49;68.84
56582;BME280;42463;52.214;21.238;2023-05-18T03:31:41;101212.87;;;9.49;68.85
56582;BME280;42463;52.214;21.238;2023-05-18T03:33:47;101210.98;;;9.49;68.94
56582;BME280;42463;52.214;21.238;2023-05-18T03:35:53;101215.32;;;9.49;68.78
56582;BME280;42463;52.214;21.238;2023-05-18T03:37:58;101215.45;;;9.48;68.72
56582;BME280;42463;52.214;21.238;2023-05-18T03:40:11;101218.49;;;9.48;68.53
56582;BME280;42463;52.214;21.238;2023-05-18T03:42:17;101221.55;;;9.47;68.71
56582;BME280;42463;52.214;21.238;2023-05-18T03:44:23;101222.89;;;9.47;68.74
56582;BME280;42463;52.214;21.238;2023-05-18T03:46:28;101224.42;;;9.48;68.97
56582;BME280;42463;52.214;21.238;2023-05-18T03:48:34;101224.26;;;9.48;68.92
56582;BME280;42463;52.214;21.238;2023-05-18T03:50:39;101231.40;;;9.49;68.87
56582;BME280;42463;52.214;21.238;2023-05-18T03:52:45;101228.94;;;9.50;68.88
56582;BME280;42463;52.214;21.238;2023-05-18T03:54:51;101236.17;;;9.51;69.07
56582;BME280;42463;52.214;21.238;2023-05-18T03:56:56;101237.12;;;9.52;68.79
56582;BME280;42463;52.214;21.238;2023-05-18T03:59:02;101243.50;;;9.52;68.77
56582;BME280;42463;52.214;21.238;2023-05-18T04:01:08;101242.28;;;9.52;68.68
56582;BME280;42463;52.214;21.238;2023-05-18T04:03:13;101241.80;;;9.55;68.75
56582;BME280;42463;52.214;21.238;2023-05-18T04:05:19;101246.26;;;9.55;68.73
56582;BME280;42463;52.214;21.238;2023-05-18T04:07:25;101242.53;;;9.56;68.79
56582;BME280;42463;52.214;21.238;2023-05-18T04:09:31;101244.76;;;9.58;68.75
56582;BME280;42463;52.214;21.238;2023-05-18T04:11:37;101244.20;;;9.59;68.84
56582;BME280;42463;52.214;21.238;2023-05-18T04:13:42;101245.76;;;9.60;68.92
56582;BME280;42463;52.214;21.238;2023-05-18T04:15:47;101249.45;;;9.63;68.87
56582;BME280;42463;52.214;21.238;2023-05-18T04:17:53;101253.60;;;9.64;68.90
56582;BME280;42463;52.214;21.238;2023-05-18T04:19:59;101254.13;;;9.65;68.78
56582;BME280;42463;52.214;21.238;2023-05-18T04:22:07;101258.14;;;9.67;68.70
56582;BME280;42463;52.214;21.238;2023-05-18T04:24:13;101261.27;;;9.68;68.70
56582;BME280;42463;52.214;21.238;2023-05-18T04:26:19;101263.20;;;9.72;68.73
56582;BME280;42463;52.214;21.238;2023-05-18T04:28:25;101264.89;;;9.74;68.47
56582;BME280;42463;52.214;21.238;2023-05-18T04:30:32;101264.61;;;9.76;68.31
56582;BME280;42463;52.214;21.238;2023-05-18T04:32:38;101269.30;;;9.78;68.40
56582;BME280;42463;52.214;21.238;2023-05-18T04:34:45;101265.73;;;9.80;68.36
56582;BME280;42463;52.214;21.238;2023-05-18T04:36:53;101269.90;;;9.83;67.91
56582;BME280;42463;52.214;21.238;2023-05-18T04:39:01;101270.05;;;9.84;67.88
56582;BME280;42463;52.214;21.238;2023-05-18T04:41:11;101272.46;;;9.85;67.35
56582;BME280;42463;52.214;21.238;2023-05-18T04:43:16;101274.04;;;9.85;67.49
56582;BME280;42463;52.214;21.238;2023-05-18T04:45:22;101271.80;;;9.87;67.50
56582;BME280;42463;52.214;21.238;2023-05-18T04:47:30;101270.38;;;9.88;67.49
56582;BME280;42463;52.214;21.238;2023-05-18T04:49:37;101274.30;;;9.91;67.50
56582;BME280;42463;52.214;21.238;2023-05-18T04:51:43;101272.73;;;9.93;67.58
56582;BME280;42463;52.214;21.238;2023-05-18T04:53:50;101275.71;;;9.95;67.21
56582;BME280;42463;52.214;21.238;2023-05-18T04:55:56;101273.70;;;9.95;67.33
56582;BME280;42463;52.214;21.238;2023-05-18T04:58:01;101274.86;;;9.96;67.11
56582;BME280;42463;52.214;21.238;2023-05-18T05:00:10;101278.27;;;9.97;66.95
56582;BME280;42463;52.214;21.238;2023-05-18T05:02:16;101278.19;;;9.97;67.17
56582;BME280;42463;52.214;21.238;2023-05-18T05:04:22;101280.45;;;9.96;66.89
56582;BME280;42463;52.214;21.238;2023-05-18T05:06:27;101282.08;;;9.96;66.86
56582;BME280;42463;52.214;21.238;2023-05-18T05:08:33;101282.36;;;9.96;67.06
56582;BME280;42463;52.214;21.238;2023-05-18T05:10:39;101284.68;;;9.94;67.01
56582;BME280;42463;52.214;21.238;2023-05-18T05:12:44;101290.30;;;9.95;66.87
56582;BME280;42463;52.214;21.238;2023-05-18T05:14:50;101289.73;;;9.97;67.03
56582;BME280;42463;52.214;21.238;2023-05-18T05:16:57;101291.98;;;9.97;66.70
56582;BME280;42463;52.214;21.238;2023-05-18T05:19:03;101296.88;;;9.98;66.94
56582;BME280;42463;52.214;21.238;2023-05-18T05:21:09;101292.98;;;10.00;66.99
56582;BME280;42463;52.214;21.238;2023-05-18T05:23:14;101292.78;;;10.03;67.17
56582;BME280;42463;52.214;21.238;2023-05-18T05:25:21;101291.92;;;10.07;67.23
56582;BME280;42463;52.214;21.238;2023-05-18T05:27:26;101292.94;;;10.12;67.10
56582;BME280;42463;52.214;21.238;2023-05-18T05:29:32;101296.02;;;10.16;66.94
56582;BME280;42463;52.214;21.238;2023-05-18T05:31:37;101297.65;;;10.18;66.71
56582;BME280;42463;52.214;21.238;2023-05-18T05:33:43;101299.09;;;10.22;66.98
56582;BME280;42463;52.214;21.238;2023-05-18T05:35:49;101306.91;;;10.27;66.81
56582;BME280;42463;52.214;21.238;2023-05-18T05:37:55;101304.00;;;10.29;66.52
56582;BME280;42463;52.214;21.238;2023-05-18T05:40:00;101304.38;;;10.29;66.31
56582;BME280;42463;52.214;21.238;2023-05-18T05:42:11;101309.52;;;10.31;66.30
56582;BME280;42463;52.214;21.238;2023-05-18T05:44:16;101311.70;;;10.36;66.20
56582;BME280;42463;52.214;21.238;2023-05-18T05:46:22;101312.41;;;10.38;66.26
56582;BME280;42463;52.214;21.238;2023-05-18T05:48:28;101312.61;;;10.42;66.09
56582;BME280;42463;52.214;21.238;2023-05-18T05:50:34;101310.45;;;10.44;65.88
56582;BME280;42463;52.214;21.238;2023-05-18T05:52:40;101314.46;;;10.46;65.79
56582;BME280;42463;52.214;21.238;2023-05-18T05:54:46;101313.19;;;10.47;65.71
56582;BME280;42463;52.214;21.238;2023-05-18T05:56:52;101313.84;;;10.48;65.59
56582;BME280;42463;52.214;21.238;2023-05-18T05:58:57;101318.88;;;10.51;65.55
56582;BME280;42463;52.214;21.238;2023-05-18T06:01:03;101315.05;;;10.54;65.28
56582;BME280;42463;52.214;21.238;2023-05-18T06:03:09;101318.86;;;10.55;65.14
56582;BME280;42463;52.214;21.238;2023-05-18T06:05:18;101318.69;;;10.56;65.35
56582;BME280;42463;52.214;21.238;2023-05-18T06:07:24;101322.06;;;10.59;65.16
56582;BME280;42463;52.214;21.238;2023-05-18T06:09:30;101325.49;;;10.64;65.36
56582;BME280;42463;52.214;21.238;2023-05-18T06:11:36;101326.23;;;10.67;65.38
56582;BME280;42463;52.214;21.238;2023-05-18T06:13:42;101328.14;;;10.71;65.32
56582;BME280;42463;52.214;21.238;2023-05-18T06:15:47;101328.45;;;10.73;65.48
56582;BME280;42463;52.214;21.238;2023-05-18T06:17:53;101327.92;;;10.74;65.12
56582;BME280;42463;52.214;21.238;2023-05-18T06:19:59;101329.86;;;10.76;65.02
56582;BME280;42463;52.214;21.238;2023-05-18T06:22:05;101329.11;;;10.78;65.02
56582;BME280;42463;52.214;21.238;2023-05-18T06:24:19;101329.30;;;10.84;65.05
56582;BME280;42463;52.214;21.238;2023-05-18T06:26:48;101330.24;;;10.88;64.59
56582;BME280;42463;52.214;21.238;2023-05-18T06:29:06;101334.66;;;10.89;64.00
56582;BME280;42463;52.214;21.238;2023-05-18T06:31:31;101333.50;;;10.91;63.63
56582;BME280;42463;52.214;21.238;2023-05-18T06:33:44;101332.98;;;10.90;62.99
56582;BME280;42463;52.214;21.238;2023-05-18T06:35:49;101335.78;;;10.86;63.07
56582;BME280;42463;52.214;21.238;2023-05-18T06:37:55;101336.25;;;10.83;63.14
56582;BME280;42463;52.214;21.238;2023-05-18T06:40:00;101334.06;;;10.85;63.20
56582;BME280;42463;52.214;21.238;2023-05-18T06:42:08;101334.64;;;10.84;63.18
56582;BME280;42463;52.214;21.238;2023-05-18T06:44:21;101336.06;;;10.85;63.15
56582;BME280;42463;52.214;21.238;2023-05-18T06:46:42;101337.64;;;10.83;63.11
56582;BME280;42463;52.214;21.238;2023-05-18T06:48:57;101341.46;;;10.84;63.65
56582;BME280;42463;52.214;21.238;2023-05-18T06:51:03;101342.30;;;10.89;63.82
56582;BME280;42463;52.214;21.238;2023-05-18T06:53:08;101345.42;;;10.95;63.62
56582;BME280;42463;52.214;21.238;2023-05-18T06:55:14;101346.69;;;11.02;63.83
56582;BME280;42463;52.214;21.238;2023-05-18T06:57:20;101346.85;;;11.09;63.70
56582;BME280;42463;52.214;21.238;2023-05-18T06:59:25;101347.59;;;11.12;63.67
56582;BME280;42463;52.214;21.238;2023-05-18T07:01:31;101344.66;;;11.12;63.27
56582;BME280;42463;52.214;21.238;2023-05-18T07:03:38;101350.96;;;11.10;62.07
56582;BME280;42463;52.214;21.238;2023-05-18T07:05:43;101352.66;;;11.08;62.04
56582;BME280;42463;52.214;21.238;2023-05-18T07:07:49;101355.49;;;11.09;61.98
56582;BME280;42463;52.214;21.238;2023-05-18T07:09:54;101354.60;;;11.10;62.06
56582;BME280;42463;52.214;21.238;2023-05-18T07:12:00;101354.46;;;11.13;62.03
56582;BME280;42463;52.214;21.238;2023-05-18T07:14:05;101356.95;;;11.17;62.45
56582;BME280;42463;52.214;21.238;2023-05-18T07:16:11;101357.54;;;11.19;62.13
56582;BME280;42463;52.214;21.238;2023-05-18T07:18:16;101356.64;;;11.20;61.71
56582;BME280;42463;52.214;21.238;2023-05-18T07:20:22;101361.08;;;11.22;61.70
56582;BME280;42463;52.214;21.238;2023-05-18T07:22:27;101353.98;;;11.25;61.68
56582;BME280;42463;52.214;21.238;2023-05-18T07:24:33;101358.70;;;11.27;61.55
56582;BME280;42463;52.214;21.238;2023-05-18T07:26:38;101357.69;;;11.30;61.67
56582;BME280;42463;52.214;21.238;2023-05-18T07:28:43;101362.31;;;11.33;61.55
56582;BME280;42463;52.214;21.238;2023-05-18T07:30:49;101363.37;;;11.36;61.19
56582;BME280;42463;52.214;21.238;2023-05-18T07:32:54;101365.42;;;11.42;61.27
56582;BME280;42463;52.214;21.238;2023-05-18T07:35:00;101363.83;;;11.50;61.63
56582;BME280;42463;52.214;21.238;2023-05-18T07:37:06;101368.27;;;11.57;61.42
56582;BME280;42463;52.214;21.238;2023-05-18T07:39:11;101366.14;;;11.61;60.76
56582;BME280;42463;52.214;21.238;2023-05-18T07:41:22;101367.98;;;11.63;60.78
56582;BME280;42463;52.214;21.238;2023-05-18T07:43:28;101372.53;;;11.65;60.48
56582;BME280;42463;52.214;21.238;2023-05-18T07:45:33;101372.52;;;11.69;60.10
56582;BME280;42463;52.214;21.238;2023-05-18T07:47:39;101375.99;;;11.72;59.89
56582;BME280;42463;52.214;21.238;2023-05-18T07:49:44;101374.14;;;11.76;59.90
56582;BME280;42463;52.214;21.238;2023-05-18T07:51:50;101374.58;;;11.82;59.66
56582;BME280;42463;52.214;21.238;2023-05-18T07:53:55;101377.76;;;11.87;59.13
56582;BME280;42463;52.214;21.238;2023-05-18T07:56:02;101382.20;;;11.91;59.13
56582;BME280;42463;52.214;21.238;2023-05-18T07:58:07;101383.67;;;11.94;58.82
56582;BME280;42463;52.214;21.238;2023-05-18T08:00:16;101384.95;;;11.97;58.61
56582;BME280;42463;52.214;21.238;2023-05-18T08:02:22;101383.92;;;12.03;58.47
56582;BME280;42463;52.214;21.238;2023-05-18T08:04:28;101383.98;;;12.05;58.21
56582;BME280;42463;52.214;21.238;2023-05-18T08:06:33;101387.56;;;12.10;57.98
56582;BME280;42463;52.214;21.238;2023-05-18T08:08:39;101390.39;;;12.13;58.22
56582;BME280;42463;52.214;21.238;2023-05-18T08:10:45;101392.39;;;12.18;58.24
56582;BME280;42463;52.214;21.238;2023-05-18T08:12:50;101393.63;;;12.23;57.94
56582;BME280;42463;52.214;21.238;2023-05-18T08:14:56;101393.17;;;12.24;57.61
56582;BME280;42463;52.214;21.238;2023-05-18T08:17:01;101397.83;;;12.28;57.69
56582;BME280;42463;52.214;21.238;2023-05-18T08:19:06;101397.09;;;12.33;57.75
56582;BME280;42463;52.214;21.238;2023-05-18T08:21:12;101393.32;;;12.37;57.38
56582;BME280;42463;52.214;21.238;2023-05-18T08:23:17;101391.73;;;12.43;57.05
56582;BME280;42463;52.214;21.238;2023-05-18T08:25:23;101390.40;;;12.46;56.97
56582;BME280;42463;52.214;21.238;2023-05-18T08:27:29;101388.17;;;12.47;56.71
56582;BME280;42463;52.214;21.238;2023-05-18T08:29:35;101391.66;;;12.49;56.83
56582;BME280;42463;52.214;21.238;2023-05-18T08:31:40;101393.78;;;12.52;56.84
56582;BME280;42463;52.214;21.238;2023-05-18T08:33:46;101396.59;;;12.56;56.87
56582;BME280;42463;52.214;21.238;2023-05-18T08:35:53;101397.34;;;12.58;57.07
56582;BME280;42463;52.214;21.238;2023-05-18T08:37:59;101399.81;;;12.59;56.85
56582;BME280;42463;52.214;21.238;2023-05-18T08:40:08;101398.34;;;12.59;56.49
56582;BME280;42463;52.214;21.238;2023-05-18T08:42:18;101400.48;;;12.60;56.39
56582;BME280;42463;52.214;21.238;2023-05-18T08:44:33;101403.11;;;12.61;56.66
56582;BME280;42463;52.214;21.238;2023-05-18T08:46:41;101403.57;;;12.65;56.69
56582;BME280;42463;52.214;21.238;2023-05-18T08:48:52;101400.69;;;12.68;56.64
56582;BME280;42463;52.214;21.238;2023-05-18T08:51:01;101401.05;;;12.73;56.80
56582;BME280;42463;52.214;21.238;2023-05-18T08:53:10;101397.18;;;12.75;56.87
56582;BME280;42463;52.214;21.238;2023-05-18T08:55:16;101395.83;;;12.79;56.96
56582;BME280;42463;52.214;21.238;2023-05-18T08:57:22;101394.91;;;12.87;57.13
56582;BME280;42463;52.214;21.238;2023-05-18T08:59:33;101394.30;;;12.95;57.27
56582;BME280;42463;52.214;21.238;2023-05-18T09:01:40;101392.84;;;13.05;57.55
56582;BME280;42463;52.214;21.238;2023-05-18T09:03:47;101395.13;;;13.11;56.76
56582;BME280;42463;52.214;21.238;2023-05-18T09:05:56;101392.98;;;13.16;57.01
56582;BME280;42463;52.214;21.238;2023-05-18T09:08:02;101394.27;;;13.23;56.83
56582;BME280;42463;52.214;21.238;2023-05-18T09:10:12;101397.30;;;13.23;56.14
56582;BME280;42463;52.214;21.238;2023-05-18T09:12:19;101398.14;;;13.24;56.45
56582;BME280;42463;52.214;21.238;2023-05-18T09:14:25;101400.89;;;13.28;56.72
56582;BME280;42463;52.214;21.238;2023-05-18T09:16:31;101399.24;;;13.35;56.84
56582;BME280;42463;52.214;21.238;2023-05-18T09:18:37;101399.12;;;13.44;56.58
56582;BME280;42463;52.214;21.238;2023-05-18T09:20:43;101396.38;;;13.51;56.10
56582;BME280;42463;52.214;21.238;2023-05-18T09:22:49;101397.59;;;13.54;55.79
56582;BME280;42463;52.214;21.238;2023-05-18T09:24:55;101400.34;;;13.58;55.77
56582;BME280;42463;52.214;21.238;2023-05-18T09:27:01;101396.83;;;13.61;55.48
56582;BME280;42463;52.214;21.238;2023-05-18T09:29:17;101398.72;;;13.67;55.28
56582;BME280;42463;52.214;21.238;2023-05-18T09:31:23;101400.02;;;13.73;55.28
56582;BME280;42463;52.214;21.238;2023-05-18T09:33:36;101398.61;;;13.79;55.11
56582;BME280;42463;52.214;21.238;2023-05-18T09:35:41;101398.37;;;13.81;54.95
56582;BME280;42463;52.214;21.238;2023-05-18T09:37:48;101399.38;;;13.83;54.08
56582;BME280;42463;52.214;21.238;2023-05-18T09:40:03;101397.72;;;13.86;54.21
56582;BME280;42463;52.214;21.238;2023-05-18T09:42:09;101399.41;;;13.89;54.55
56582;BME280;42463;52.214;21.238;2023-05-18T09:44:15;101398.56;;;13.95;54.71
56582;BME280;42463;52.214;21.238;2023-05-18T09:46:21;101400.07;;;14.02;54.84
56582;BME280;42463;52.214;21.238;2023-05-18T09:48:26;101401.83;;;14.08;54.63
56582;BME280;42463;52.214;21.238;2023-05-18T09:50:31;101403.84;;;14.11;54.37
56582;BME280;42463;52.214;21.238;2023-05-18T09:52:42;101403.60;;;14.13;54.06
56582;BME280;42463;52.214;21.238;2023-05-18T09:54:58;101400.48;;;14.18;54.16
56582;BME280;42463;52.214;21.238;2023-05-18T09:57:04;101405.20;;;14.20;54.27
56582;BME280;42463;52.214;21.238;2023-05-18T09:59:11;101403.54;;;14.22;53.82
56582;BME280;42463;52.214;21.238;2023-05-18T10:01:17;101403.86;;;14.23;54.32
56582;BME280;42463;52.214;21.238;2023-05-18T10:03:24;101403.33;;;14.27;54.59
56582;BME280;42463;52.214;21.238;2023-05-18T10:05:29;101405.38;;;14.34;54.58
56582;BME280;42463;52.214;21.238;2023-05-18T10:07:37;101403.52;;;14.43;53.77
56582;BME280;42463;52.214;21.238;2023-05-18T10:09:44;101404.78;;;14.47;53.70
56582;BME280;42463;52.214;21.238;2023-05-18T10:11:50;101402.11;;;14.52;53.45
56582;BME280;42463;52.214;21.238;2023-05-18T10:13:55;101400.01;;;14.55;53.12
56582;BME280;42463;52.214;21.238;2023-05-18T10:16:03;101396.52;;;14.58;53.11
56582;BME280;42463;52.214;21.238;2023-05-18T10:18:09;101396.24;;;14.62;52.66
56582;BME280;42463;52.214;21.238;2023-05-18T10:20:18;101395.40;;;14.66;52.80
56582;BME280;42463;52.214;21.238;2023-05-18T10:22:25;101395.77;;;14.69;52.94
56582;BME280;42463;52.214;21.238;2023-05-18T10:24:36;101396.86;;;14.75;52.81
56582;BME280;42463;52.214;21.238;2023-05-18T10:26:44;101398.52;;;14.81;52.63
56582;BME280;42463;52.214;21.238;2023-05-18T10:28:53;101396.11;;;14.87;53.07
56582;BME280;42463;52.214;21.238;2023-05-18T10:31:00;101396.55;;;14.93;53.30
56582;BME280;42463;52.214;21.238;2023-05-18T10:33:06;101396.52;;;14.97;52.94
56582;BME280;42463;52.214;21.238;2023-05-18T10:35:14;101397.91;;;15.00;52.67
56582;BME280;42463;52.214;21.238;2023-05-18T10:37:22;101398.95;;;15.00;52.23
56582;BME280;42463;52.214;21.238;2023-05-18T10:39:28;101400.33;;;15.01;52.27
56582;BME280;42463;52.214;21.238;2023-05-18T10:41:35;101396.19;;;15.02;51.84
56582;BME280;42463;52.214;21.238;2023-05-18T10:43:43;101392.16;;;14.99;51.58
56582;BME280;42463;52.214;21.238;2023-05-18T10:45:53;101392.77;;;14.98;52.58
56582;BME280;42463;52.214;21.238;2023-05-18T10:48:00;101392.65;;;15.04;53.32
56582;BME280;42463;52.214;21.238;2023-05-18T10:50:09;101396.63;;;15.08;53.15
56582;BME280;42463;52.214;21.238;2023-05-18T10:52:16;101400.92;;;15.13;52.63
56582;BME280;42463;52.214;21.238;2023-05-18T10:54:22;101396.79;;;15.14;52.48
56582;BME280;42463;52.214;21.238;2023-05-18T10:56:28;101395.94;;;15.19;51.88
56582;BME280;42463;52.214;21.238;2023-05-18T10:58:36;101394.11;;;15.21;51.01